createdAt,value
2022-09-03T00:00:25.491Z,4.35
2022-09-03T00:03:14.618Z,4.50
2022-09-03T00:05:56.690Z,4.40
2022-09-03T00:08:31.646Z,5.18
2022-09-03T00:11:18.924Z,4.28
2022-09-03T00:13:50.722Z,4.68
2022-09-03T00:16:22.155Z,4.40
2022-09-03T00:19:03.442Z,4.85
2022-09-03T00:21:52.746Z,4.55
2022-09-03T00:24:25.051Z,4.40
2022-09-03T00:26:57.059Z,5.22
2022-09-03T00:29:36.867Z,4.97
2022-09-03T00:32:14.613Z,4.43
2022-09-03T00:34:51.124Z,5.22
2022-09-03T00:37:18.864Z,5.13
2022-09-03T00:39:46.588Z,5.30
2022-09-03T00:42:41.436Z,5.15
2022-09-03T00:45:40.276Z,4.68
2022-09-03T00:48:50.572Z,4.20
2022-09-03T00:51:43.593Z,5.10
2022-09-03T00:54:33.106Z,5.93
2022-09-03T00:57:39.111Z,5.30
2022-09-03T01:00:10.339Z,4.97
2022-09-03T01:03:08.092Z,5.47
2022-09-03T01:05:54.118Z,5.25
2022-09-03T01:08:37.127Z,5.60
2022-09-03T01:11:28.853Z,5.88
2022-09-03T01:14:16.080Z,5.50
2022-09-03T01:17:16.342Z,5.55
2022-09-03T01:20:04.545Z,4.90
2022-09-03T01:22:32.054Z,6.07
2022-09-03T01:25:14.118Z,5.45
2022-09-03T01:28:16.258Z,5.40
2022-09-03T01:30:50.311Z,6.18
2022-09-03T01:33:29.997Z,5.43
2022-09-03T01:36:13.939Z,6.13
2022-09-03T01:38:51.616Z,6.15
2022-09-03T01:42:02.215Z,5.63
2022-09-03T01:45:02.834Z,6.63
2022-09-03T01:48:00.070Z,6.50
2022-09-03T01:50:39.379Z,5.47
2022-09-03T01:53:25.755Z,6.70
2022-09-03T01:56:29.012Z,6.10
2022-09-03T01:59:21.236Z,6.70
2022-09-03T02:02:02.698Z,7.50
2022-09-03T02:04:30.863Z,6.57
2022-09-03T02:07:00.628Z,6.65
2022-09-03T02:09:29.300Z,7.90
2022-09-03T02:12:13.030Z,7.40
2022-09-03T02:14:40.840Z,6.53
2022-09-03T02:17:09.274Z,6.00
2022-09-03T02:19:37.780Z,6.28
2022-09-03T02:22:05.933Z,6.75
2022-09-03T02:24:34.010Z,6.93
2022-09-03T02:27:01.448Z,6.30
2022-09-03T02:29:29.029Z,6.07
2022-09-03T02:31:57.972Z,6.45
2022-09-03T02:34:25.249Z,6.43
2022-09-03T02:36:52.715Z,6.47
2022-09-03T02:39:20.151Z,7.75
2022-09-03T02:41:55.223Z,6.95
2022-09-03T02:44:28.371Z,6.55
2022-09-03T02:47:01.187Z,6.20
2022-09-03T02:49:29.779Z,7.03
2022-09-03T02:52:15.820Z,7.35
2022-09-03T02:54:45.276Z,5.90
2022-09-03T02:57:16.564Z,7.82
2022-09-03T02:59:50.443Z,7.38
2022-09-03T03:02:17.902Z,7.72
2022-09-03T03:04:45.260Z,7.22
2022-09-03T03:07:12.584Z,7.03
2022-09-03T03:09:39.905Z,7.10
2022-09-03T03:12:07.470Z,7.80
2022-09-03T03:14:34.716Z,7.20
2022-09-03T03:17:02.092Z,6.93
2022-09-03T03:19:29.399Z,6.43
2022-09-03T03:21:56.999Z,6.78
2022-09-03T03:24:24.217Z,7.82
2022-09-03T03:26:51.466Z,6.47
2022-09-03T03:29:18.839Z,6.97
2022-09-03T03:31:46.251Z,6.78
2022-09-03T03:34:13.536Z,7.53
2022-09-03T03:36:40.859Z,8.20
2022-09-03T03:39:08.186Z,8.32
2022-09-03T03:41:38.723Z,7.38
2022-09-03T03:44:07.902Z,8.48
2022-09-03T03:46:37.810Z,8.02
2022-09-03T03:49:08.648Z,8.15
2022-09-03T03:51:37.285Z,9.02
2022-09-03T03:54:05.702Z,9.27
2022-09-03T03:56:34.840Z,8.15
2022-09-03T03:59:02.782Z,9.73
2022-09-03T04:01:30.441Z,8.82
2022-09-03T04:04:00.378Z,8.57
2022-09-03T04:06:28.937Z,9.52
2022-09-03T04:08:56.316Z,8.98
2022-09-03T04:11:25.140Z,9.50
2022-09-03T04:13:53.305Z,10.45
2022-09-03T04:16:26.567Z,9.40
2022-09-03T04:18:55.548Z,9.88
2022-09-03T04:21:28.574Z,8.93
2022-09-03T04:23:56.869Z,9.82
2022-09-03T04:26:31.808Z,7.93
2022-09-03T04:29:06.906Z,9.13
2022-09-03T04:31:36.023Z,10.25
2022-09-03T04:34:03.358Z,10.75
2022-09-03T04:36:31.368Z,9.38
2022-09-03T04:39:00.524Z,9.30
2022-09-03T04:41:30.354Z,9.48
2022-09-03T04:43:59.575Z,9.40
2022-09-03T04:46:34.164Z,10.02
2022-09-03T04:49:02.533Z,11.05
2022-09-03T04:51:31.286Z,10.73
2022-09-03T04:54:01.399Z,10.40
2022-09-03T04:56:31.646Z,10.02
2022-09-03T04:59:01.495Z,11.50
2022-09-03T05:01:31.384Z,12.05
2022-09-03T05:04:00.042Z,10.52
2022-09-03T05:06:29.415Z,10.25
2022-09-03T05:08:57.501Z,10.50
2022-09-03T05:11:26.434Z,10.57
2022-09-03T05:13:55.856Z,10.60
2022-09-03T05:16:24.519Z,10.40
2022-09-03T05:18:56.877Z,11.30
2022-09-03T05:21:24.786Z,11.10
2022-09-03T05:23:53.302Z,10.77
2022-09-03T05:26:24.232Z,11.40
2022-09-03T05:28:57.281Z,11.50
2022-09-03T05:31:26.805Z,11.32
2022-09-03T05:33:58.685Z,11.27
2022-09-03T05:36:29.535Z,11.30
2022-09-03T05:38:58.907Z,9.82
2022-09-03T05:41:27.622Z,11.23
2022-09-03T05:43:56.426Z,11.52
2022-09-03T05:46:32.363Z,11.02
2022-09-03T05:49:05.654Z,10.55
2022-09-03T05:51:34.556Z,10.65
2022-09-03T05:54:02.938Z,11.00
2022-09-03T05:56:32.298Z,10.63
2022-09-03T05:59:02.324Z,10.70
2022-09-03T06:01:41.449Z,10.73
2022-09-03T06:04:15.559Z,11.85
2022-09-03T06:06:44.801Z,10.88
2022-09-03T06:09:20.153Z,12.05
2022-09-03T06:11:50.273Z,11.05
2022-09-03T06:14:18.336Z,10.27
2022-09-03T06:16:50.161Z,10.15
2022-09-03T06:19:17.763Z,13.55
2022-09-03T06:21:46.978Z,12.50
2022-09-03T06:24:17.026Z,12.82
2022-09-03T06:26:45.548Z,11.70
2022-09-03T06:29:13.494Z,12.57
2022-09-03T06:31:41.002Z,11.43
2022-09-03T06:34:08.504Z,13.18
2022-09-03T06:36:36.243Z,12.98
2022-09-03T06:39:03.987Z,12.20
2022-09-03T06:44:39.838Z,15.10
2022-09-03T06:47:07.151Z,14.50
2022-09-03T06:49:34.541Z,12.82
2022-09-03T06:52:02.046Z,13.35
2022-09-03T06:54:29.296Z,13.95
2022-09-03T06:56:56.837Z,15.60
2022-09-03T06:59:24.330Z,15.35
2022-09-03T07:01:51.690Z,15.13
2022-09-03T07:04:20.396Z,15.77
2022-09-03T07:06:48.163Z,15.85
2022-09-03T07:09:18.323Z,16.00
2022-09-03T07:11:49.563Z,16.15
2022-09-03T07:14:19.143Z,15.52
2022-09-03T07:16:47.702Z,14.35
2022-09-03T07:19:15.739Z,15.30
2022-09-03T07:21:48.355Z,14.65
2022-09-03T07:24:17.021Z,15.27
2022-09-03T07:26:48.914Z,12.82
2022-09-03T07:29:20.431Z,14.27
2022-09-03T07:31:52.115Z,14.38
2022-09-03T07:34:22.026Z,13.90
2022-09-03T07:36:51.391Z,13.55
2022-09-03T07:39:19.361Z,12.68
2022-09-03T07:41:47.375Z,14.18
2022-09-03T07:44:16.463Z,12.68
2022-09-03T07:46:46.258Z,10.82
2022-09-03T07:49:14.108Z,11.88
2022-09-03T07:51:41.643Z,10.38
2022-09-03T07:54:11.750Z,10.95
2022-09-03T07:56:40.761Z,8.20
2022-09-03T07:59:08.972Z,9.90
2022-09-03T08:01:38.414Z,9.60
2022-09-03T08:04:09.812Z,10.02
2022-09-03T08:06:38.452Z,7.50
2022-09-03T08:09:08.372Z,8.68
2022-09-03T08:11:41.826Z,8.05
2022-09-03T08:14:11.617Z,7.25
2022-09-03T08:16:44.833Z,6.72
2022-09-03T08:19:13.529Z,7.70
2022-09-03T08:21:42.436Z,7.90
2022-09-03T08:24:11.814Z,7.93
2022-09-03T08:26:50.599Z,5.03
2022-09-03T08:29:20.215Z,6.63
2022-09-03T08:31:47.683Z,5.50
2022-09-03T08:34:17.658Z,4.75
2022-09-03T08:36:47.374Z,7.25
2022-09-03T08:39:15.494Z,5.78
2022-09-03T08:41:52.060Z,5.30
2022-09-03T08:44:47.911Z,4.28
2022-09-03T08:47:29.038Z,2.63
2022-09-03T08:50:04.608Z,2.92
2022-09-03T08:52:53.774Z,2.67
2022-09-03T08:55:44.896Z,1.80
2022-09-03T08:58:21.540Z,1.25
2022-09-03T09:01:01.659Z,1.15
2022-09-03T09:04:00.126Z,1.30
2022-09-03T09:06:47.660Z,2.35
2022-09-03T09:09:31.663Z,1.90
2022-09-03T09:12:45.889Z,1.53
2022-09-03T09:15:40.295Z,1.27
2022-09-03T09:18:07.524Z,1.33
2022-09-03T09:20:46.731Z,1.90
2022-09-03T09:23:33.592Z,1.65
2022-09-03T09:26:06.934Z,1.52
2022-09-03T09:28:37.919Z,1.52
2022-09-03T09:31:07.939Z,2.50
2022-09-03T09:33:35.857Z,1.15
2022-09-03T09:36:12.244Z,2.38
2022-09-03T09:38:40.349Z,2.45
2022-09-03T09:41:19.804Z,1.75
2022-09-03T09:43:48.336Z,2.45
2022-09-03T09:46:21.575Z,2.13
2022-09-03T09:48:56.656Z,1.50
2022-09-03T09:51:26.961Z,1.17
2022-09-03T09:54:28.017Z,1.60
2022-09-03T09:57:05.877Z,2.67
2022-09-03T09:59:34.206Z,1.55
2022-09-03T10:02:09.451Z,1.90
2022-09-03T10:04:37.693Z,1.45
2022-09-03T10:07:28.191Z,0.90
2022-09-03T10:10:18.420Z,1.15
2022-09-03T10:12:51.639Z,0.68
2022-09-03T10:15:42.530Z,1.80
2022-09-03T10:18:45.818Z,1.27
2022-09-03T10:21:20.587Z,0.80
2022-09-03T10:23:56.679Z,2.30
2022-09-03T10:26:33.123Z,1.20
2022-09-03T10:29:03.194Z,0.93
2022-09-03T10:31:31.674Z,0.88
2022-09-03T10:34:37.161Z,1.10
2022-09-03T10:37:33.702Z,0.73
2022-09-03T10:40:31.080Z,1.33
2022-09-03T10:43:13.366Z,1.30
2022-09-03T10:45:55.710Z,0.88
2022-09-03T10:48:45.145Z,0.80
2022-09-03T10:51:18.800Z,0.63
2022-09-03T10:53:53.570Z,0.60
2022-09-03T10:56:51.041Z,0.65
2022-09-03T10:59:29.037Z,0.60
2022-09-03T11:02:18.200Z,0.73
2022-09-03T11:05:04.568Z,0.80
2022-09-03T11:07:58.603Z,0.82
2022-09-03T11:10:30.923Z,0.70
2022-09-03T11:13:27.598Z,0.82
2022-09-03T11:16:06.741Z,0.65
2022-09-03T11:18:51.477Z,0.93
2022-09-03T11:21:26.834Z,0.82
2022-09-03T11:24:06.899Z,0.85
2022-09-03T11:26:35.630Z,1.00
2022-09-03T11:29:11.785Z,0.47
2022-09-03T11:32:02.526Z,0.85
2022-09-03T11:34:44.620Z,0.70
2022-09-03T11:37:18.834Z,0.70
2022-09-03T11:39:58.661Z,0.80
2022-09-03T11:42:33.935Z,0.80
2022-09-03T11:45:13.845Z,0.70
2022-09-03T11:47:42.677Z,0.80
2022-09-03T11:50:21.455Z,0.70
2022-09-03T11:52:53.367Z,0.70
2022-09-03T11:55:26.805Z,0.65
2022-09-03T11:57:54.112Z,0.80
2022-09-03T12:00:24.931Z,0.75
2022-09-03T12:02:59.162Z,0.60
2022-09-03T12:05:43.768Z,0.60
2022-09-03T12:08:47.263Z,0.73
2022-09-03T12:11:36.181Z,0.75
2022-09-03T12:14:31.328Z,0.70
2022-09-03T12:17:33.432Z,0.63
2022-09-03T12:20:00.718Z,0.68
2022-09-03T12:22:31.371Z,0.60
2022-09-03T12:25:11.452Z,0.50
2022-09-03T12:27:43.206Z,0.70
2022-09-03T12:30:19.635Z,0.52
2022-09-03T12:32:47.988Z,0.70
2022-09-03T12:38:18.451Z,0.57
2022-09-03T12:43:43.249Z,0.82
2022-09-03T12:46:16.306Z,0.65
2022-09-03T12:51:52.557Z,0.80
2022-09-03T12:54:22.955Z,0.52
2022-09-03T12:56:58.513Z,0.77
2022-09-03T12:59:31.611Z,0.68
2022-09-03T13:02:02.764Z,0.68
2022-09-03T13:04:34.038Z,0.47
2022-09-03T13:07:11.945Z,0.60
2022-09-03T13:09:41.260Z,0.60
2022-09-03T13:12:21.805Z,0.60
2022-09-03T13:14:50.669Z,0.60
2022-09-03T13:17:47.318Z,0.60
2022-09-03T13:20:34.068Z,0.60
2022-09-03T13:23:07.969Z,1.15
2022-09-03T13:26:27.868Z,0.50
2022-09-03T13:29:00.701Z,0.60
2022-09-03T13:31:53.380Z,0.70
2022-09-03T13:34:39.672Z,0.50
2022-09-03T13:37:37.778Z,0.50
2022-09-03T13:40:24.632Z,0.70
2022-09-03T13:43:02.917Z,0.60
2022-09-03T13:45:37.765Z,0.60
2022-09-03T13:48:43.433Z,0.90
2022-09-03T13:51:22.736Z,0.70
2022-09-03T13:54:47.752Z,0.70
2022-09-03T13:57:32.896Z,0.70
2022-09-03T14:00:08.758Z,1.23
2022-09-03T14:02:58.268Z,0.82
2022-09-03T14:05:25.669Z,0.93
2022-09-03T14:07:59.172Z,0.80
2022-09-03T14:10:59.046Z,1.00
2022-09-03T14:13:58.905Z,1.13
2022-09-03T14:17:12.466Z,1.02
2022-09-03T14:20:04.591Z,0.88
2022-09-03T14:22:46.775Z,1.20
2022-09-03T14:25:20.450Z,1.08
2022-09-03T14:27:48.638Z,1.00
2022-09-03T14:30:55.847Z,0.82
2022-09-03T14:33:44.796Z,0.80
2022-09-03T14:36:29.731Z,0.90
2022-09-03T14:39:11.598Z,0.80
2022-09-03T14:42:03.653Z,0.90
2022-09-03T14:45:11.970Z,0.80
2022-09-03T14:48:05.069Z,0.70
2022-09-03T14:51:03.502Z,1.02
2022-09-03T14:53:47.571Z,0.93
2022-09-03T14:56:33.638Z,1.02
2022-09-03T14:59:11.157Z,0.80
2022-09-03T15:01:39.748Z,0.90
2022-09-03T15:04:23.993Z,0.80
2022-09-03T15:06:51.187Z,0.90
2022-09-03T15:09:30.557Z,0.75
2022-09-03T15:12:09.120Z,1.23
2022-09-03T15:14:55.455Z,0.70
2022-09-03T15:17:31.640Z,0.90
2022-09-03T15:20:18.081Z,0.88
2022-09-03T15:22:58.201Z,0.90
2022-09-03T15:25:46.202Z,1.13
2022-09-03T15:28:25.381Z,0.90
2022-09-03T15:31:18.955Z,1.10
2022-09-03T15:34:07.797Z,1.10
2022-09-03T15:36:43.207Z,1.52
2022-09-03T15:39:16.629Z,2.15
2022-09-03T15:41:56.488Z,1.20
2022-09-03T15:44:26.661Z,1.27
2022-09-03T15:47:12.182Z,1.55
2022-09-03T15:50:05.160Z,1.63
2022-09-03T15:52:53.393Z,1.48
2022-09-03T15:55:32.102Z,1.85
2022-09-03T15:58:25.840Z,1.73
2022-09-03T16:01:32.455Z,2.35
2022-09-03T16:04:12.007Z,2.67
2022-09-03T16:06:45.270Z,1.60
2022-09-03T16:09:44.132Z,1.63
2022-09-03T16:12:49.461Z,1.40
2022-09-03T16:15:26.306Z,1.42
2022-09-03T16:18:06.965Z,1.83
2022-09-03T16:20:43.657Z,1.15
2022-09-03T16:23:26.204Z,1.90
2022-09-03T16:26:04.122Z,1.42
2022-09-03T16:28:48.240Z,1.65
2022-09-03T16:31:35.780Z,1.50
2022-09-03T16:34:27.569Z,1.63
2022-09-03T16:36:54.853Z,1.52
2022-09-03T16:39:43.137Z,1.50
2022-09-03T16:42:40.848Z,1.52
2022-09-03T16:45:27.504Z,1.30
2022-09-03T16:48:10.980Z,1.63
2022-09-03T16:50:53.263Z,1.92
2022-09-03T16:53:35.955Z,2.10
2022-09-03T16:56:54.488Z,1.55
2022-09-03T16:59:27.802Z,2.00
2022-09-03T17:02:39.522Z,2.08
2022-09-03T17:05:15.572Z,1.80
2022-09-03T17:08:24.484Z,1.30
2022-09-03T17:11:29.383Z,1.63
2022-09-03T17:14:21.823Z,1.50
2022-09-03T17:17:08.695Z,1.40
2022-09-03T17:19:44.504Z,1.63
2022-09-03T17:22:32.948Z,1.00
2022-09-03T17:25:08.089Z,1.17
2022-09-03T17:27:48.985Z,1.42
2022-09-03T17:30:40.814Z,1.45
2022-09-03T17:33:36.508Z,1.30
2022-09-03T17:36:19.249Z,1.30
2022-09-03T17:38:49.301Z,1.95
2022-09-03T17:41:22.743Z,1.58
2022-09-03T17:44:21.681Z,2.00
2022-09-03T17:47:30.391Z,1.20
2022-09-03T17:50:07.444Z,2.00
2022-09-03T17:52:46.347Z,2.05
2022-09-03T17:55:33.028Z,2.13
2022-09-03T17:58:24.755Z,2.47
2022-09-03T18:01:03.984Z,1.65
2022-09-03T18:03:44.581Z,2.35
2022-09-03T18:06:26.447Z,2.15
2022-09-03T18:09:20.597Z,2.45
2022-09-03T18:12:02.450Z,2.03
2022-09-03T18:14:38.083Z,2.17
2022-09-03T18:17:34.286Z,1.92
2022-09-03T18:20:30.081Z,1.85
2022-09-03T18:23:40.047Z,1.98
2022-09-03T18:26:33.741Z,2.72
2022-09-03T18:29:31.060Z,2.13
2022-09-03T18:32:17.374Z,2.17
2022-09-03T18:35:06.144Z,2.20
2022-09-03T18:37:52.437Z,1.90
2022-09-03T18:40:46.322Z,2.70
2022-09-03T18:43:47.387Z,2.58
2022-09-03T18:48:00.947Z,2.88
2022-09-03T18:50:25.582Z,3.45
2022-09-03T18:53:21.532Z,2.33
2022-09-03T18:56:31.593Z,2.47
2022-09-03T18:59:31.863Z,1.85
2022-09-03T19:02:26.919Z,2.55
2022-09-03T19:05:40.769Z,2.47
2022-09-03T19:08:38.588Z,2.13
2022-09-03T19:11:53.585Z,2.05
2022-09-03T19:15:20.383Z,2.58
2022-09-03T19:18:24.617Z,2.13
2022-09-03T19:21:20.400Z,1.95
2022-09-03T19:24:06.884Z,1.80
2022-09-03T19:27:23.534Z,1.75
2022-09-03T19:30:27.428Z,1.80
2022-09-03T19:33:44.130Z,2.08
2022-09-03T19:36:48.026Z,2.05
2022-09-03T19:39:56.219Z,1.45
2022-09-03T19:43:07.560Z,1.67
2022-09-03T19:46:22.478Z,1.90
2022-09-03T19:49:19.355Z,1.77
2022-09-03T19:52:40.028Z,1.73
2022-09-03T19:55:31.427Z,1.95
2022-09-03T19:58:41.493Z,1.77
2022-09-03T20:01:27.347Z,2.05
2022-09-03T20:04:17.164Z,1.95
2022-09-03T20:07:04.594Z,2.03
2022-09-03T20:09:57.192Z,1.95
2022-09-03T20:12:29.044Z,2.33
2022-09-03T20:14:56.563Z,2.42
2022-09-03T20:17:35.894Z,2.53
2022-09-03T20:20:22.268Z,2.60
2022-09-03T20:23:20.063Z,2.33
2022-09-03T20:26:34.656Z,2.53
2022-09-03T20:29:22.640Z,2.58
2022-09-03T20:31:59.820Z,2.65
2022-09-03T20:34:52.145Z,2.67
2022-09-03T20:37:41.617Z,3.00
2022-09-03T20:40:31.603Z,2.80
2022-09-03T20:43:34.266Z,2.72
2022-09-03T20:46:21.456Z,2.38
2022-09-03T20:48:58.066Z,2.65
2022-09-03T20:51:36.275Z,3.08
2022-09-03T20:54:12.567Z,2.30
2022-09-03T20:57:11.360Z,3.15
2022-09-03T21:00:15.176Z,2.60
2022-09-03T21:03:00.422Z,1.70
2022-09-03T21:05:30.714Z,2.22
2022-09-03T21:08:25.693Z,2.17
2022-09-03T21:11:08.228Z,2.58
2022-09-03T21:13:59.746Z,2.45
2022-09-03T21:16:42.059Z,2.28
2022-09-03T21:19:18.321Z,2.30
2022-09-03T21:21:57.661Z,2.38
2022-09-03T21:24:34.292Z,1.85
2022-09-03T21:27:10.233Z,2.55
2022-09-03T21:29:44.985Z,2.30
2022-09-03T21:32:21.328Z,1.95
2022-09-03T21:35:06.252Z,1.98
2022-09-03T21:37:39.674Z,1.70
2022-09-03T21:40:12.596Z,1.88
2022-09-03T21:42:46.352Z,2.35
2022-09-03T21:45:34.460Z,2.33
2022-09-03T21:48:19.859Z,2.38
2022-09-03T21:50:58.662Z,2.22
2022-09-03T21:53:59.349Z,1.90
2022-09-03T21:56:47.883Z,2.00
2022-09-03T21:59:33.718Z,2.60
2022-09-03T22:02:24.382Z,2.22
2022-09-03T22:04:53.038Z,2.17
2022-09-03T22:07:39.790Z,2.30
2022-09-03T22:10:50.385Z,2.47
2022-09-03T22:13:25.520Z,2.92
2022-09-03T22:16:01.270Z,1.85
2022-09-03T22:18:35.057Z,2.15
2022-09-03T22:21:19.925Z,1.80
2022-09-03T22:24:04.274Z,2.58
2022-09-03T22:26:46.630Z,1.98
2022-09-03T22:29:44.630Z,2.35
2022-09-03T22:32:36.469Z,2.17
2022-09-03T22:35:23.302Z,2.47
2022-09-03T22:38:07.628Z,2.33
2022-09-03T22:40:56.247Z,2.60
2022-09-03T22:43:40.314Z,2.58
2022-09-03T22:46:17.505Z,2.93
2022-09-03T22:49:14.345Z,2.22
2022-09-03T22:52:20.523Z,2.75
2022-09-03T22:55:08.112Z,2.58
2022-09-03T22:57:41.821Z,1.75
2022-09-03T23:00:11.088Z,2.43
2022-09-03T23:02:41.454Z,2.60
2022-09-03T23:05:41.403Z,2.30
2022-09-03T23:08:18.115Z,2.80
2022-09-03T23:11:07.647Z,2.35
2022-09-03T23:13:49.419Z,2.60
2022-09-03T23:16:22.669Z,2.10
2022-09-03T23:18:51.537Z,2.50
2022-09-03T23:21:22.358Z,2.35
2022-09-03T23:24:07.834Z,2.45
2022-09-03T23:26:53.524Z,2.55
2022-09-03T23:29:30.337Z,2.33
2022-09-03T23:31:59.201Z,2.50
2022-09-03T23:34:27.718Z,2.80
2022-09-03T23:37:35.352Z,2.83
2022-09-03T23:40:14.774Z,2.60
2022-09-03T23:42:59.918Z,2.70
2022-09-03T23:46:07.970Z,3.17
2022-09-03T23:48:55.837Z,2.60
2022-09-03T23:51:46.518Z,2.80
2022-09-03T23:54:16.536Z,3.03
2022-09-03T23:56:56.444Z,1.90
2022-09-03T23:59:35.586Z,2.30
